createdAt,value
2019-05-16T00:02:51.554Z,19.80
2019-05-16T00:05:22.426Z,19.32
2019-05-16T00:07:53.367Z,33.38
2019-05-16T00:10:24.239Z,22.50
2019-05-16T00:12:55.491Z,22.40
2019-05-16T00:15:28.481Z,22.48
2019-05-16T00:17:58.649Z,21.70
2019-05-16T00:20:29.481Z,20.60
2019-05-16T00:23:00.417Z,19.52
2019-05-16T00:25:31.366Z,19.52
2019-05-16T00:28:02.227Z,19.65
2019-05-16T00:30:32.942Z,20.85
2019-05-16T00:33:03.756Z,21.20
2019-05-16T00:35:34.615Z,20.88
2019-05-16T00:38:05.362Z,19.20
2019-05-16T00:40:38.032Z,19.90
2019-05-16T00:43:08.475Z,19.85
2019-05-16T00:45:39.295Z,19.70
2019-05-16T00:48:21.725Z,19.62
2019-05-16T00:50:52.832Z,19.07
2019-05-16T00:53:23.726Z,21.40
2019-05-16T00:55:55.255Z,20.90
2019-05-16T00:58:28.414Z,25.40
2019-05-16T01:00:59.324Z,23.45
2019-05-16T01:03:30.397Z,20.02
2019-05-16T01:06:01.258Z,26.62
2019-05-16T01:08:32.176Z,22.52
2019-05-16T01:11:03.142Z,20.97
2019-05-16T01:13:33.931Z,21.62
2019-05-16T01:16:05.184Z,21.93
2019-05-16T01:18:37.987Z,19.35
2019-05-16T01:21:08.889Z,20.68
2019-05-16T01:23:40.067Z,19.85
2019-05-16T01:26:11.139Z,20.37
2019-05-16T01:28:42.025Z,19.50
2019-05-16T01:31:18.634Z,19.95
2019-05-16T01:33:48.710Z,24.05
2019-05-16T01:36:33.406Z,21.55
2019-05-16T01:38:52.999Z,22.45
2019-05-16T01:41:23.825Z,25.55
2019-05-16T01:43:54.626Z,21.70
2019-05-16T01:46:25.539Z,23.85
2019-05-16T01:48:58.048Z,23.50
2019-05-16T01:51:29.737Z,21.87
2019-05-16T01:54:00.732Z,21.70
2019-05-16T01:56:31.866Z,20.92
2019-05-16T01:59:02.699Z,18.50
2019-05-16T02:01:33.714Z,20.82
2019-05-16T02:04:05.407Z,20.02
2019-05-16T02:06:48.429Z,19.70
2019-05-16T02:09:23.198Z,21.17
2019-05-16T02:11:54.232Z,23.35
2019-05-16T02:14:28.192Z,20.30
2019-05-16T02:16:58.496Z,20.48
2019-05-16T02:19:29.424Z,19.07
2019-05-16T02:22:00.462Z,16.27
2019-05-16T02:24:31.486Z,26.12
2019-05-16T02:27:02.387Z,20.65
2019-05-16T02:29:33.329Z,22.15
2019-05-16T02:32:04.216Z,20.32
2019-05-16T02:34:35.342Z,21.10
2019-05-16T02:37:22.556Z,19.90
2019-05-16T02:39:40.930Z,20.40
2019-05-16T02:42:12.214Z,20.25
2019-05-16T02:44:43.533Z,19.50
2019-05-16T02:47:14.512Z,19.05
2019-05-16T02:49:45.582Z,17.82
2019-05-16T02:52:16.292Z,18.95
2019-05-16T02:54:47.291Z,19.73
2019-05-16T02:57:20.966Z,19.27
2019-05-16T02:59:51.033Z,19.30
2019-05-16T03:02:22.472Z,17.07
2019-05-16T03:04:53.441Z,24.52
2019-05-16T03:07:37.868Z,18.45
2019-05-16T03:10:01.599Z,17.10
2019-05-16T03:12:31.992Z,18.75
2019-05-16T03:15:03.195Z,14.85
2019-05-16T03:17:36.246Z,15.10
2019-05-16T03:20:10.795Z,15.03
2019-05-16T03:22:42.159Z,15.53
2019-05-16T03:25:13.151Z,14.43
2019-05-16T03:27:43.991Z,12.18
2019-05-16T03:30:16.626Z,11.90
2019-05-16T03:32:47.151Z,13.38
2019-05-16T03:35:23.822Z,13.10
2019-05-16T03:37:57.044Z,12.47
2019-05-16T03:40:25.241Z,13.18
2019-05-16T03:42:56.240Z,13.95
2019-05-16T03:45:26.986Z,12.93
2019-05-16T03:48:02.266Z,13.90
2019-05-16T03:50:30.607Z,13.95
2019-05-16T03:53:01.819Z,13.85
2019-05-16T03:55:33.118Z,15.50
2019-05-16T03:58:03.948Z,15.40
2019-05-16T04:00:37.355Z,15.48
2019-05-16T04:03:11.388Z,13.93
2019-05-16T04:05:41.350Z,14.53
2019-05-16T04:08:19.429Z,14.47
2019-05-16T04:10:45.646Z,15.58
2019-05-16T04:13:16.542Z,16.95
2019-05-16T04:15:47.652Z,15.25
2019-05-16T04:18:21.570Z,17.87
2019-05-16T04:20:52.723Z,19.15
2019-05-16T04:23:24.431Z,15.43
2019-05-16T04:25:55.610Z,17.62
2019-05-16T04:28:26.978Z,12.90
2019-05-16T04:31:01.451Z,12.78
2019-05-16T04:33:31.162Z,11.95
2019-05-16T04:36:02.156Z,13.15
2019-05-16T04:38:40.828Z,12.35
2019-05-16T04:41:05.525Z,13.53
2019-05-16T04:43:36.428Z,12.00
2019-05-16T04:46:07.331Z,12.90
2019-05-16T04:48:41.433Z,12.85
2019-05-16T04:51:10.645Z,13.00
2019-05-16T04:53:42.597Z,12.23
2019-05-16T04:56:13.928Z,12.37
2019-05-16T04:58:45.300Z,11.57
2019-05-16T05:01:16.727Z,12.85
2019-05-16T05:04:01.858Z,12.93
2019-05-16T05:06:20.848Z,13.00
2019-05-16T05:09:03.074Z,14.90
2019-05-16T05:11:32.781Z,13.65
2019-05-16T05:14:04.119Z,13.05
2019-05-16T05:16:35.060Z,13.88
2019-05-16T05:19:05.840Z,13.40
2019-05-16T05:21:37.175Z,17.95
2019-05-16T05:24:10.670Z,14.65
2019-05-16T05:26:41.442Z,14.45
2019-05-16T05:29:14.493Z,16.15
2019-05-16T05:31:45.752Z,15.10
2019-05-16T05:34:16.861Z,16.62
2019-05-16T05:36:48.039Z,15.25
2019-05-16T05:39:20.306Z,14.07
2019-05-16T05:41:51.009Z,15.55
2019-05-16T05:44:22.147Z,14.10
2019-05-16T05:46:52.914Z,16.02
2019-05-16T05:49:23.840Z,19.95
2019-05-16T05:51:54.818Z,14.68
2019-05-16T05:54:25.659Z,16.45
2019-05-16T05:56:56.860Z,13.80
2019-05-16T05:59:30.437Z,16.42
2019-05-16T06:02:00.888Z,15.58
2019-05-16T06:04:32.127Z,14.55
2019-05-16T06:07:03.026Z,14.47
2019-05-16T06:09:34.162Z,13.90
2019-05-16T06:12:07.540Z,15.68
2019-05-16T06:14:37.383Z,15.40
2019-05-16T06:17:11.254Z,16.35
2019-05-16T06:19:40.502Z,15.58
2019-05-16T06:22:11.221Z,16.80
2019-05-16T06:24:42.367Z,18.15
2019-05-16T06:27:13.228Z,18.80
2019-05-16T06:29:44.162Z,17.50
2019-05-16T06:32:16.561Z,10.88
2019-05-16T06:34:48.019Z,11.73
2019-05-16T06:37:20.522Z,14.65
2019-05-16T06:39:51.688Z,13.48
2019-05-16T06:42:22.601Z,22.40
2019-05-16T06:44:53.550Z,18.98
2019-05-16T06:47:24.645Z,13.32
2019-05-16T06:49:55.949Z,15.28
2019-05-16T06:52:26.812Z,13.43
2019-05-16T06:54:57.690Z,13.65
2019-05-16T06:57:30.218Z,12.53
2019-05-16T07:00:00.759Z,13.78
2019-05-16T07:02:34.526Z,10.18
2019-05-16T07:05:04.682Z,9.43
2019-05-16T07:07:35.567Z,11.10
2019-05-16T07:10:09.578Z,9.93
2019-05-16T07:12:41.374Z,8.85
2019-05-16T07:15:13.207Z,9.63
2019-05-16T07:18:04.424Z,9.65
2019-05-16T07:20:35.287Z,9.15
2019-05-16T07:23:06.794Z,12.68
2019-05-16T07:25:40.628Z,11.18
2019-05-16T07:28:10.623Z,9.65
2019-05-16T07:30:41.442Z,7.83
2019-05-16T07:33:12.399Z,9.00
2019-05-16T07:35:43.491Z,8.03
2019-05-16T07:38:14.620Z,8.30
2019-05-16T07:40:45.970Z,7.72
2019-05-16T07:43:39.927Z,9.05
2019-05-16T07:46:11.111Z,9.08
2019-05-16T07:48:42.354Z,14.00
2019-05-16T07:51:13.295Z,14.68
2019-05-16T07:53:44.325Z,11.33
2019-05-16T07:56:15.340Z,10.95
2019-05-16T07:58:46.319Z,14.78
2019-05-16T08:01:22.583Z,16.62
2019-05-16T08:03:53.805Z,13.20
2019-05-16T08:06:24.654Z,12.45
2019-05-16T08:08:55.575Z,12.60
2019-05-16T08:11:26.671Z,12.23
2019-05-16T08:13:57.475Z,11.28
2019-05-16T08:16:30.583Z,11.35
2019-05-16T08:19:00.987Z,12.03
2019-05-16T08:21:32.674Z,12.47
2019-05-16T08:24:07.277Z,14.95
2019-05-16T08:26:40.035Z,14.50
2019-05-16T08:29:08.308Z,16.30
2019-05-16T08:31:43.070Z,17.00
2019-05-16T08:34:13.649Z,13.65
2019-05-16T08:36:44.811Z,11.78
2019-05-16T08:39:15.931Z,11.93
2019-05-16T08:41:47.208Z,11.45
2019-05-16T08:44:21.503Z,11.65
2019-05-16T08:49:27.288Z,10.82
2019-05-16T08:52:01.254Z,10.90
2019-05-16T08:54:32.797Z,10.82
2019-05-16T08:57:25.590Z,11.15
2019-05-16T08:59:37.538Z,10.43
2019-05-16T09:02:12.538Z,10.90
2019-05-16T09:04:44.150Z,11.97
2019-05-16T09:07:15.340Z,12.23
2019-05-16T09:09:51.039Z,12.28
2019-05-16T09:10:41.403Z,11.28
2019-05-16T09:12:18.343Z,12.28
2019-05-16T09:14:59.698Z,11.20
2019-05-16T09:17:31.269Z,12.43
2019-05-16T09:20:19.791Z,12.47
2019-05-16T09:22:51.337Z,12.15
2019-05-16T09:25:24.026Z,11.53
2019-05-16T09:27:58.633Z,12.53
2019-05-16T09:30:29.579Z,11.97
2019-05-16T09:33:00.496Z,19.55
2019-05-16T09:35:31.167Z,15.68
2019-05-16T09:38:02.127Z,13.10
2019-05-16T09:40:38.682Z,13.32
2019-05-16T09:43:08.085Z,12.03
2019-05-16T09:45:38.809Z,11.85
2019-05-16T09:48:11.748Z,11.75
2019-05-16T09:50:42.808Z,12.18
2019-05-16T09:53:13.623Z,12.07
2019-05-16T09:55:46.790Z,11.48
2019-05-16T09:58:18.290Z,11.53
2019-05-16T10:00:49.930Z,11.45
2019-05-16T10:03:22.651Z,11.75
2019-05-16T10:05:53.387Z,11.50
2019-05-16T10:08:26.551Z,14.70
2019-05-16T10:10:58.785Z,14.45
2019-05-16T10:13:29.739Z,14.78
2019-05-16T10:16:00.574Z,13.10
2019-05-16T10:18:31.616Z,11.68
2019-05-16T10:21:03.395Z,11.12
2019-05-16T10:23:36.284Z,11.78
2019-05-16T10:26:06.574Z,11.83
2019-05-16T10:28:38.455Z,11.40
2019-05-16T10:31:09.486Z,11.35
2019-05-16T10:33:40.189Z,12.60
2019-05-16T10:36:11.137Z,8.68
2019-05-16T10:38:42.042Z,8.73
2019-05-16T10:41:12.874Z,9.83
2019-05-16T10:43:43.658Z,8.85
2019-05-16T10:46:17.442Z,6.75
2019-05-16T10:48:47.019Z,7.40
2019-05-16T10:51:17.898Z,8.33
2019-05-16T10:54:13.033Z,7.85
2019-05-16T10:56:21.329Z,8.58
2019-05-16T10:59:25.827Z,9.13
2019-05-16T11:01:28.653Z,9.68
2019-05-16T11:03:56.885Z,9.38
2019-05-16T11:06:29.421Z,10.23
2019-05-16T11:09:00.116Z,9.98
2019-05-16T11:11:31.007Z,10.25
2019-05-16T11:14:01.729Z,8.88
2019-05-16T11:16:32.714Z,8.80
2019-05-16T11:19:14.413Z,8.05
2019-05-16T11:21:37.614Z,7.65
2019-05-16T11:24:12.908Z,7.15
2019-05-16T11:26:40.124Z,7.58
2019-05-16T11:29:11.063Z,7.78
2019-05-16T11:31:41.881Z,7.30
2019-05-16T11:34:12.667Z,7.42
2019-05-16T11:36:43.680Z,8.20
2019-05-16T11:39:17.250Z,8.35
2019-05-16T11:41:47.575Z,7.80
2019-05-16T11:44:18.669Z,7.97
2019-05-16T11:46:49.562Z,8.13
2019-05-16T11:49:20.220Z,7.45
2019-05-16T11:51:50.996Z,6.40
2019-05-16T11:54:22.067Z,6.65
2019-05-16T11:56:52.951Z,6.90
2019-05-16T11:59:23.743Z,7.03
2019-05-16T12:01:54.616Z,7.75
2019-05-16T12:04:27.898Z,7.15
2019-05-16T12:06:57.537Z,7.15
2019-05-16T12:09:33.445Z,6.80
2019-05-16T12:12:04.050Z,6.97
2019-05-16T12:14:32.647Z,6.97
2019-05-16T12:17:03.622Z,7.50
2019-05-16T12:19:37.703Z,6.60
2019-05-16T12:22:07.074Z,7.62
2019-05-16T12:24:41.347Z,6.65
2019-05-16T12:27:10.494Z,7.95
2019-05-16T12:29:41.316Z,7.20
2019-05-16T12:32:12.260Z,7.45
2019-05-16T12:34:43.180Z,6.35
2019-05-16T12:37:14.175Z,7.42
2019-05-16T12:39:46.975Z,6.80
2019-05-16T12:42:17.148Z,7.37
2019-05-16T12:44:47.949Z,6.87
2019-05-16T12:47:18.898Z,7.35
2019-05-16T12:49:49.714Z,7.00
2019-05-16T12:52:20.571Z,7.58
2019-05-16T12:54:51.542Z,7.92
2019-05-16T12:57:27.941Z,7.30
2019-05-16T12:59:56.911Z,7.05
2019-05-16T13:02:27.338Z,7.35
2019-05-16T13:04:58.385Z,7.42
2019-05-16T13:07:29.134Z,7.70
2019-05-16T13:09:59.984Z,7.05
2019-05-16T13:12:30.972Z,6.90
2019-05-16T13:15:01.761Z,7.30
2019-05-16T13:17:32.747Z,7.37
2019-05-16T13:20:03.488Z,7.65
2019-05-16T13:22:34.324Z,7.92
2019-05-16T13:25:07.445Z,7.33
2019-05-16T13:27:38.447Z,7.55
2019-05-16T13:30:11.726Z,7.00
2019-05-16T13:32:42.628Z,7.17
2019-05-16T13:35:16.724Z,6.67
2019-05-16T13:37:47.711Z,7.12
2019-05-16T13:40:18.972Z,7.08
2019-05-16T13:42:49.798Z,7.33
2019-05-16T13:45:20.794Z,7.03
2019-05-16T13:47:51.653Z,6.92
2019-05-16T13:50:22.900Z,7.42
2019-05-16T13:52:53.882Z,6.72
2019-05-16T13:55:27.036Z,6.33
2019-05-16T13:57:57.207Z,6.30
2019-05-16T14:00:28.456Z,6.28
2019-05-16T14:02:59.085Z,5.90
2019-05-16T14:05:30.105Z,6.92
2019-05-16T14:08:00.771Z,6.45
2019-05-16T14:10:31.628Z,6.78
2019-05-16T14:13:02.463Z,6.35
2019-05-16T14:15:33.352Z,6.42
2019-05-16T14:18:04.003Z,6.60
2019-05-16T14:20:37.386Z,6.70
2019-05-16T14:23:08.625Z,7.00
2019-05-16T14:25:39.458Z,7.30
2019-05-16T14:28:10.391Z,6.70
2019-05-16T14:30:41.148Z,7.22
2019-05-16T14:33:14.103Z,6.80
2019-05-16T14:35:44.300Z,7.35
2019-05-16T14:38:17.350Z,7.15
2019-05-16T14:40:50.137Z,6.87
2019-05-16T14:43:19.818Z,7.17
2019-05-16T14:45:50.804Z,7.67
2019-05-16T14:48:21.491Z,8.00
2019-05-16T14:50:52.362Z,8.10
2019-05-16T14:53:23.201Z,7.55
2019-05-16T14:55:53.993Z,7.72
2019-05-16T14:58:30.354Z,8.68
2019-05-16T15:00:57.482Z,8.90
2019-05-16T15:03:28.577Z,9.25
2019-05-16T15:05:59.388Z,9.65
2019-05-16T15:08:30.245Z,8.88
2019-05-16T15:11:01.298Z,9.08
2019-05-16T15:13:32.099Z,9.15
2019-05-16T15:16:03.048Z,9.40
2019-05-16T15:18:33.900Z,9.08
2019-05-16T15:21:08.034Z,9.15
2019-05-16T15:23:36.959Z,8.55
2019-05-16T15:26:09.409Z,8.85
2019-05-16T15:28:39.910Z,9.58
2019-05-16T15:31:10.925Z,10.18
2019-05-16T15:33:41.844Z,9.65
2019-05-16T15:36:12.706Z,10.13
2019-05-16T15:38:43.410Z,10.58
2019-05-16T15:41:16.501Z,11.80
2019-05-16T15:43:46.523Z,12.43
2019-05-16T15:46:17.534Z,12.05
2019-05-16T15:48:48.921Z,12.33
2019-05-16T15:51:21.258Z,10.82
2019-05-16T15:53:52.336Z,13.35
2019-05-16T15:56:23.244Z,12.43
2019-05-16T15:58:54.070Z,12.53
2019-05-16T16:01:26.873Z,11.97
2019-05-16T16:03:56.901Z,13.10
2019-05-16T16:06:27.942Z,12.80
2019-05-16T16:08:58.730Z,12.15
2019-05-16T16:11:29.783Z,12.47
2019-05-16T16:14:00.620Z,13.20
2019-05-16T16:16:31.604Z,13.72
2019-05-16T16:19:02.430Z,13.50
2019-05-16T16:21:33.422Z,13.65
2019-05-16T16:24:08.149Z,13.28
2019-05-16T16:26:38.163Z,13.55
2019-05-16T16:29:08.864Z,12.75
2019-05-16T16:31:39.653Z,13.38
2019-05-16T16:34:10.417Z,13.43
2019-05-16T16:36:41.184Z,12.95
2019-05-16T16:39:12.085Z,13.72
2019-05-16T16:41:42.896Z,13.58
2019-05-16T16:44:13.803Z,14.20
2019-05-16T16:46:46.657Z,13.85
2019-05-16T16:49:17.265Z,14.28
2019-05-16T16:51:48.476Z,14.63
2019-05-16T16:54:19.245Z,13.08
2019-05-16T16:56:50.210Z,14.93
2019-05-16T16:59:21.130Z,14.70
2019-05-16T17:01:51.941Z,14.78
2019-05-16T17:04:22.658Z,14.47
2019-05-16T17:06:53.449Z,14.63
2019-05-16T17:09:26.842Z,14.23
2019-05-16T17:11:57.080Z,15.25
2019-05-16T17:14:28.036Z,14.68
2019-05-16T17:16:58.847Z,15.85
2019-05-16T17:19:29.775Z,15.75
2019-05-16T17:22:12.962Z,15.63
2019-05-16T17:24:32.641Z,15.30
2019-05-16T17:27:03.624Z,15.60
2019-05-16T17:29:36.753Z,15.83
2019-05-16T17:32:09.980Z,15.88
2019-05-16T17:34:38.639Z,15.20
2019-05-16T17:37:09.807Z,14.47
2019-05-16T17:39:40.632Z,15.48
2019-05-16T17:42:11.450Z,16.10
2019-05-16T17:44:42.336Z,15.78
2019-05-16T17:47:13.247Z,16.05
2019-05-16T17:49:46.122Z,16.60
2019-05-16T17:52:16.580Z,17.17
2019-05-16T17:54:47.546Z,15.70
2019-05-16T17:57:18.275Z,15.72
2019-05-16T17:59:49.136Z,15.93
2019-05-16T18:02:20.102Z,16.48
2019-05-16T18:04:50.933Z,17.65
2019-05-16T18:07:23.053Z,16.90
2019-05-16T18:09:53.905Z,16.87
2019-05-16T18:12:27.388Z,17.75
2019-05-16T18:14:57.163Z,18.23
2019-05-16T18:17:28.342Z,17.87
2019-05-16T18:19:59.071Z,18.65
2019-05-16T18:22:30.005Z,18.05
2019-05-16T18:25:00.861Z,18.07
2019-05-16T18:27:32.294Z,18.00
2019-05-16T18:30:03.236Z,16.70
2019-05-16T18:32:34.067Z,17.20
2019-05-16T18:35:07.343Z,18.10
2019-05-16T18:37:37.895Z,18.25
2019-05-16T18:40:09.470Z,19.15
2019-05-16T18:42:40.488Z,19.80
2019-05-16T18:45:12.096Z,19.70
2019-05-16T18:47:42.928Z,20.15
2019-05-16T18:50:14.340Z,19.85
2019-05-16T18:52:47.059Z,20.15
2019-05-16T18:55:17.398Z,20.65
2019-05-16T18:57:48.200Z,20.12
2019-05-16T19:00:19.363Z,20.70
2019-05-16T19:02:50.295Z,19.92
2019-05-16T19:05:21.319Z,20.27
2019-05-16T19:07:52.298Z,21.07
2019-05-16T19:10:23.291Z,21.15
2019-05-16T19:12:54.164Z,20.23
2019-05-16T19:15:26.619Z,20.85
2019-05-16T19:17:58.648Z,21.33
2019-05-16T19:20:29.732Z,22.37
2019-05-16T19:23:00.672Z,21.62
2019-05-16T19:25:31.362Z,21.62
2019-05-16T19:28:02.259Z,22.62
2019-05-16T19:30:33.317Z,21.82
2019-05-16T19:33:04.103Z,21.48
2019-05-16T19:35:34.969Z,21.40
2019-05-16T19:38:06.941Z,21.05
2019-05-16T19:40:40.483Z,20.97
2019-05-16T19:43:10.359Z,20.55
2019-05-16T19:45:41.229Z,20.32
2019-05-16T19:48:12.104Z,21.12
2019-05-16T19:50:42.847Z,20.60
2019-05-16T19:53:13.755Z,21.45
2019-05-16T19:55:46.865Z,22.77
2019-05-16T19:58:16.993Z,23.02
2019-05-16T20:00:47.873Z,23.47
2019-05-16T20:03:18.826Z,23.98
2019-05-16T20:05:49.731Z,24.47
2019-05-16T20:08:20.532Z,24.95
2019-05-16T20:10:51.450Z,25.95
2019-05-16T20:13:22.300Z,24.15
2019-05-16T20:15:53.273Z,22.98
2019-05-16T20:18:24.161Z,23.12
2019-05-16T20:20:56.823Z,21.93
2019-05-16T20:23:27.753Z,20.95
2019-05-16T20:25:58.625Z,22.02
2019-05-16T20:28:29.476Z,20.88
2019-05-16T20:31:00.841Z,21.42
2019-05-16T20:33:31.733Z,22.73
2019-05-16T20:36:02.603Z,21.85
2019-05-16T20:38:33.588Z,21.80
2019-05-16T20:41:04.434Z,21.57
2019-05-16T20:43:36.824Z,21.30
2019-05-16T20:46:07.760Z,21.62
2019-05-16T20:48:38.699Z,21.85
2019-05-16T20:51:09.749Z,21.97
2019-05-16T20:53:40.640Z,21.80
2019-05-16T20:56:11.519Z,21.77
2019-05-16T20:58:42.332Z,21.27
2019-05-16T21:01:13.287Z,21.52
2019-05-16T21:03:46.647Z,20.37
2019-05-16T21:06:17.091Z,20.52
2019-05-16T21:08:49.643Z,21.20
2019-05-16T21:11:20.352Z,20.90
2019-05-16T21:13:51.302Z,20.37
2019-05-16T21:16:22.118Z,19.98
2019-05-16T21:18:53.013Z,20.88
2019-05-16T21:21:23.897Z,20.05
2019-05-16T21:23:56.251Z,19.90
2019-05-16T21:26:26.895Z,19.27
2019-05-16T21:28:58.522Z,20.80
2019-05-16T21:31:29.361Z,20.75
2019-05-16T21:34:00.164Z,19.98
2019-05-16T21:36:31.266Z,20.85
2019-05-16T21:39:01.960Z,20.72
2019-05-16T21:41:32.927Z,19.12
2019-05-16T21:44:03.718Z,20.77
2019-05-16T21:46:36.387Z,20.40
2019-05-16T21:49:07.510Z,20.77
2019-05-16T21:51:38.408Z,20.48
2019-05-16T21:54:09.403Z,20.37
2019-05-16T21:56:40.283Z,22.17
2019-05-16T21:59:11.861Z,22.13
2019-05-16T22:01:43.173Z,21.52
2019-05-16T22:04:14.426Z,23.12
2019-05-16T22:06:47.483Z,21.75
2019-05-16T22:09:17.957Z,23.50
2019-05-16T22:11:49.672Z,24.12
2019-05-16T22:14:22.937Z,23.75
2019-05-16T22:16:53.784Z,23.77
2019-05-16T22:19:24.441Z,23.75
2019-05-16T22:21:56.422Z,24.47
2019-05-16T22:24:27.652Z,25.85
2019-05-16T22:26:58.509Z,24.37
